Time;durP1;ratioP1;P1;durP2;ratioP2;P2;SDS_P1;SDS_P2;PMS_P1;PMS_P2;Temp;Humidity;BMP_temperature;BMP_pressure;BME280_temperature;BME280_humidity;BME280_pressure;Samples;Min_cycle;Max_cycle;Signal;HPM_P1;HPM_P2
2022/05/27 00:00:04;;;;;;;1.30;0.70;;;;;;;15.59;70.80;99105.08;105213;1268;73086;-69
2022/05/27 00:02:52;;;;;;;1.60;1.00;;;;;;;15.62;70.89;99103.77;105253;1268;61395;-68
2022/05/27 00:05:19;;;;;;;1.40;1.00;;;;;;;15.64;70.64;99104.70;105254;1268;61299;-69
2022/05/27 00:07:46;;;;;;;1.50;0.90;;;;;;;15.65;70.63;99102.09;105010;1268;76166;-68
2022/05/27 00:10:14;;;;;;;1.80;1.00;;;;;;;15.66;70.64;99101.42;105174;1268;69363;-69
2022/05/27 00:12:40;;;;;;;1.30;0.80;;;;;;;15.66;70.74;99100.94;105209;1268;73319;-69
2022/05/27 00:15:08;;;;;;;1.10;0.80;;;;;;;15.66;70.46;99101.08;105219;1268;61345;-69
2022/05/27 00:17:34;;;;;;;1.20;0.90;;;;;;;15.68;70.50;99101.48;105232;1268;61258;-69
2022/05/27 00:20:01;;;;;;;2.00;0.70;;;;;;;15.67;70.59;99098.52;105231;1268;61354;-69
2022/05/27 00:22:28;;;;;;;2.50;0.90;;;;;;;15.67;70.27;99097.44;105268;1268;69309;-69
2022/05/27 00:24:54;;;;;;;3.00;0.90;;;;;;;15.67;70.31;99093.83;105248;1268;61300;-69
2022/05/27 00:27:21;;;;;;;3.40;1.20;;;;;;;15.68;70.42;99093.23;105199;1268;61361;-69
2022/05/27 00:29:47;;;;;;;3.10;1.90;;;;;;;15.69;70.35;99091.21;105201;1268;61295;-68
2022/05/27 00:32:14;;;;;;;1.00;0.70;;;;;;;15.69;70.20;99089.39;104992;1268;61393;-69
2022/05/27 00:34:40;;;;;;;2.80;1.20;;;;;;;15.68;70.37;99087.83;105220;1268;70041;-68
2022/05/27 00:37:07;;;;;;;1.30;0.90;;;;;;;15.68;70.35;99087.66;105228;1268;61384;-69
2022/05/27 00:39:33;;;;;;;1.70;0.90;;;;;;;15.68;70.30;99085.31;105171;1268;61307;-68
2022/05/27 00:42:00;;;;;;;1.10;0.80;;;;;;;15.68;70.35;99082.63;105202;1268;61252;-70
2022/05/27 00:44:27;;;;;;;1.10;1.00;;;;;;;15.68;70.43;99083.37;104710;1268;444156;-68
2022/05/27 00:46:59;;;;;;;3.60;1.00;;;;;;;15.68;70.44;99081.95;105000;1268;70602;-69
2022/05/27 00:49:27;;;;;;;2.50;1.00;;;;;;;15.69;70.38;99080.46;104988;1268;73307;-69
2022/05/27 00:52:01;;;;;;;1.60;0.90;;;;;;;15.69;70.41;99082.08;105251;1268;61310;-70
2022/05/27 00:54:28;;;;;;;2.10;1.10;;;;;;;15.67;70.67;99078.08;105199;1267;61194;-68
2022/05/27 00:57:00;;;;;;;2.60;0.80;;;;;;;15.67;70.42;99078.85;105262;1268;76168;-68
2022/05/27 00:59:38;;;;;;;2.10;0.90;;;;;;;15.66;70.56;99080.31;105210;1268;70399;-68
2022/05/27 01:02:04;;;;;;;1.60;1.00;;;;;;;15.65;70.64;99079.48;104892;1268;71381;-68
2022/05/27 01:04:33;;;;;;;1.30;0.90;;;;;;;15.65;70.63;99078.21;105211;1268;61829;-70
2022/05/27 01:07:00;;;;;;;4.00;0.90;;;;;;;15.65;70.59;99080.96;105025;1268;61348;-69
2022/05/27 01:09:29;;;;;;;3.90;1.30;;;;;;;15.64;70.50;99078.67;105032;1268;61313;-68
2022/05/27 01:12:17;;;;;;;2.20;1.10;;;;;;;15.65;70.58;99075.77;105378;1268;69133;-70
2022/05/27 01:14:51;;;;;;;3.50;1.10;;;;;;;15.64;70.45;99070.48;105222;1268;73287;-68
2022/05/27 01:17:18;;;;;;;3.90;1.20;;;;;;;15.66;70.64;99074.25;105241;1268;61390;-68
2022/05/27 01:22:46;;;;;;;1.20;0.90;;;;;;;15.62;70.83;99069.02;105218;1268;75209;-67
2022/05/27 01:25:19;;;;;;;2.50;0.90;;;;;;;15.60;70.83;99060.95;105233;1268;68650;-69
2022/05/27 01:27:48;;;;;;;2.50;1.20;;;;;;;15.59;71.01;99061.41;105218;1268;72800;-68
2022/05/27 01:30:24;;;;;;;1.30;0.90;;;;;;;15.57;70.89;99061.38;104974;1268;61384;-69
2022/05/27 01:33:21;;;;;;;1.50;0.70;;;;;;;15.56;70.84;99054.47;105240;1268;61930;-70
2022/05/27 01:36:10;;;;;;;1.30;1.00;;;;;;;15.55;70.92;99053.11;105237;1268;75491;-68
2022/05/27 01:39:02;;;;;;;4.00;1.30;;;;;;;15.54;70.84;99048.23;105262;1268;69149;-68
2022/05/27 01:41:35;;;;;;;1.90;0.90;;;;;;;15.53;70.82;99051.31;104976;1268;72861;-70
2022/05/27 01:44:11;;;;;;;0.90;0.70;;;;;;;15.52;70.92;99043.36;105255;1268;61301;-69
2022/05/27 01:46:44;;;;;;;1.90;0.80;;;;;;;15.51;70.76;99043.14;105420;1268;62058;-69
2022/05/27 01:49:36;;;;;;;2.00;1.40;;;;;;;15.50;70.95;99042.65;105205;1267;75679;-69
2022/05/27 01:52:08;;;;;;;1.40;0.70;;;;;;;15.48;70.84;99042.64;105211;1268;70254;-69
2022/05/27 01:54:41;;;;;;;2.90;0.80;;;;;;;15.46;71.03;99042.80;105221;1268;74793;-71
2022/05/27 01:57:17;;;;;;;2.00;0.90;;;;;;;15.45;71.10;99041.63;105244;1268;61484;-69
2022/05/27 01:59:43;;;;;;;1.60;1.40;;;;;;;15.44;71.16;99040.89;104984;1268;61158;-69
2022/05/27 02:02:18;;;;;;;1.10;0.70;;;;;;;15.43;71.21;99039.34;105188;1268;61424;-69
2022/05/27 02:04:55;;;;;;;3.10;0.80;;;;;;;15.43;70.94;99038.79;105264;1268;69187;-68
2022/05/27 02:07:28;;;;;;;1.90;0.70;;;;;;;15.42;71.11;99036.54;105226;1268;74297;-70
2022/05/27 02:10:20;;;;;;;1.30;0.80;;;;;;;15.40;70.96;99033.66;105270;1268;61280;-69
2022/05/27 02:13:03;;;;;;;2.00;0.90;;;;;;;15.40;70.88;99030.11;105221;1268;61256;-69
2022/05/27 02:15:37;;;;;;;1.20;0.70;;;;;;;15.39;70.86;99029.46;105204;1268;75307;-70
2022/05/27 02:18:11;;;;;;;1.70;0.70;;;;;;;15.37;70.91;99026.03;105238;1267;70478;-68
2022/05/27 02:20:44;;;;;;;0.90;0.70;;;;;;;15.36;70.93;99025.74;105008;1268;74208;-68
2022/05/27 02:23:26;;;;;;;1.60;0.60;;;;;;;15.35;70.93;99025.70;105203;1268;61263;-68
2022/05/27 02:25:55;;;;;;;0.70;0.70;;;;;;;15.33;70.99;99022.80;105244;1268;61818;-69
2022/05/27 02:28:28;;;;;;;1.20;0.70;;;;;;;15.32;71.15;99022.15;105367;1268;76102;-67
2022/05/27 02:30:59;;;;;;;2.30;1.10;;;;;;;15.31;71.24;99019.70;104971;1268;70406;-69
2022/05/27 02:36:28;;;;;;;2.00;1.20;;;;;;;15.30;71.05;99015.58;105232;1268;61397;-68
2022/05/27 02:38:55;;;;;;;1.60;1.00;;;;;;;15.30;70.75;99011.83;105214;1268;61122;-69
2022/05/27 02:41:32;;;;;;;1.50;0.90;;;;;;;15.29;70.99;99010.66;105247;1268;61247;-69
2022/05/27 02:44:22;;;;;;;1.60;0.90;;;;;;;15.28;70.88;99010.95;105227;1268;69922;-68
2022/05/27 02:47:07;;;;;;;1.90;0.90;;;;;;;15.27;71.02;99005.80;105211;1268;72750;-71
2022/05/27 02:49:46;;;;;;;1.90;0.90;;;;;;;15.26;70.98;98998.69;105226;1268;61390;-68
2022/05/27 02:52:22;;;;;;;1.40;0.80;;;;;;;15.26;70.85;98996.41;104973;1268;61497;-70
2022/05/27 02:55:02;;;;;;;1.40;1.00;;;;;;;15.26;70.95;98999.80;105235;1268;76268;-70
2022/05/27 02:57:46;;;;;;;1.40;0.80;;;;;;;15.25;70.84;98996.63;105198;1268;70120;-68
2022/05/27 03:00:16;;;;;;;2.00;1.00;;;;;;;15.24;70.95;98994.75;105185;1268;73244;-70
2022/05/27 03:02:43;;;;;;;2.20;1.00;;;;;;;15.24;70.64;98992.45;105262;1268;61398;-70
2022/05/27 03:05:12;;;;;;;1.90;0.70;;;;;;;15.24;70.48;98990.96;105205;1268;61275;-71
2022/05/27 03:07:47;;;;;;;1.40;0.70;;;;;;;15.25;70.21;98996.16;105234;1268;75046;-68
2022/05/27 03:10:17;;;;;;;1.30;0.80;;;;;;;15.26;70.14;98995.36;105257;1268;69291;-68
2022/05/27 03:13:18;;;;;;;1.90;1.00;;;;;;;15.25;70.32;98989.73;105205;1268;74953;-69
2022/05/27 03:16:15;;;;;;;2.60;1.20;;;;;;;15.24;70.22;98989.43;105213;1268;61304;-69
2022/05/27 03:18:51;;;;;;;3.30;0.90;;;;;;;15.24;70.21;98986.75;105244;1268;61790;-70
2022/05/27 03:21:26;;;;;;;3.10;1.10;;;;;;;15.25;70.09;98986.62;105225;1268;76220;-70
2022/05/27 03:24:04;;;;;;;2.10;1.10;;;;;;;15.27;70.24;98987.14;105213;1268;69314;-70
2022/05/27 03:26:49;;;;;;;2.20;0.90;;;;;;;15.29;69.95;98983.36;105205;1268;73294;-70
2022/05/27 03:29:29;;;;;;;2.80;0.90;;;;;;;15.32;69.86;98986.72;105226;1268;61293;-70
2022/05/27 03:31:59;;;;;;;;;;;;;;;15.34;69.75;98984.72;105206;1268;61868;-68
2022/05/27 03:34:53;;;;;;;2.20;1.40;;;;;;;15.37;69.67;98985.23;105183;1268;74676;-70
2022/05/27 03:37:41;;;;;;;3.20;1.80;;;;;;;15.40;69.72;98982.34;105174;1268;68859;-70
2022/05/27 03:40:20;;;;;;;1.90;1.30;;;;;;;15.42;69.53;98980.66;105223;1268;72788;-70
2022/05/27 03:42:49;;;;;;;2.10;1.10;;;;;;;15.46;69.34;98982.15;105463;1268;61307;-69
2022/05/27 03:45:19;;;;;;;1.60;1.10;;;;;;;15.50;69.31;98978.95;105235;1268;61238;-69
2022/05/27 03:47:45;;;;;;;;;;;;;;;15.54;69.32;98973.52;105285;1268;76504;-68
2022/05/27 03:50:19;;;;;;;2.70;1.00;;;;;;;15.59;69.13;98974.91;105243;1268;70575;-68
2022/05/27 03:52:48;;;;;;;1.20;1.00;;;;;;;15.63;69.10;98976.58;105287;1268;73306;-70
2022/05/27 03:55:18;;;;;;;2.60;1.20;;;;;;;15.66;69.01;98972.34;105330;1268;61172;-68
2022/05/27 03:57:45;;;;;;;2.80;0.80;;;;;;;15.70;68.86;98973.95;105407;1268;61268;-69
2022/05/27 04:00:14;;;;;;;1.50;0.90;;;;;;;15.73;68.44;98975.71;105223;1268;76351;-69
2022/05/27 04:02:41;;;;;;;1.50;0.90;;;;;;;15.74;68.48;98971.41;105266;1268;68453;-70
2022/05/27 04:05:10;;;;;;;1.70;1.10;;;;;;;15.77;68.54;98969.06;105197;1268;73618;-69
2022/05/27 04:07:37;;;;;;;3.70;1.20;;;;;;;15.78;68.19;98969.65;105296;1268;61184;-70
2022/05/27 04:10:04;;;;;;;3.50;1.40;;;;;;;15.79;68.40;98965.23;105235;1268;61384;-69
2022/05/27 04:12:31;;;;;;;2.60;1.00;;;;;;;15.81;68.24;98967.79;104955;1269;75305;-68
2022/05/27 04:14:57;;;;;;;2.70;1.10;;;;;;;15.83;68.16;98965.48;105224;1268;61280;-69
2022/05/27 04:17:33;;;;;;;0.90;0.80;;;;;;;15.85;68.10;98964.71;105200;1268;61287;-69
2022/05/27 04:20:01;;;;;;;1.60;1.00;;;;;;;15.92;67.93;98960.02;105197;1268;61345;-71
2022/05/27 04:22:28;;;;;;;2.60;1.40;;;;;;;15.98;67.75;98955.70;105251;1268;61258;-69
2022/05/27 04:24:55;;;;;;;3.60;1.50;;;;;;;16.07;67.73;98954.91;105254;1268;75862;-69
2022/05/27 04:27:22;;;;;;;6.80;1.40;;;;;;;16.14;67.43;98950.84;105245;1268;68709;-71
2022/05/27 04:29:51;;;;;;;2.00;1.30;;;;;;;16.20;67.56;98947.73;105227;1268;61259;-67
2022/05/27 04:32:21;;;;;;;2.10;1.30;;;;;;;16.27;67.36;98952.36;105188;1268;61249;-68
2022/05/27 04:34:49;;;;;;;6.30;1.60;;;;;;;16.31;67.44;98954.33;105279;1268;62194;-69
2022/05/27 04:37:16;;;;;;;2.50;1.20;;;;;;;16.33;67.10;98958.81;105255;1268;76108;-69
2022/05/27 04:39:43;;;;;;;2.30;1.30;;;;;;;16.36;66.98;98956.77;105260;1268;70623;-70
2022/05/27 04:42:11;;;;;;;2.50;1.20;;;;;;;16.40;66.86;98957.09;105199;1268;73389;-69
2022/05/27 04:44:37;;;;;;;2.80;1.30;;;;;;;16.45;66.91;98953.58;105475;1268;61276;-69
2022/05/27 04:47:05;;;;;;;3.10;1.30;;;;;;;16.48;66.71;98946.84;105018;1269;61528;-69
2022/05/27 04:52:29;;;;;;;2.20;1.30;;;;;;;16.55;66.33;98939.71;105240;1268;69310;-69
2022/05/27 04:54:59;;;;;;;4.00;1.20;;;;;;;16.60;66.28;98938.04;105247;1268;74396;-69
2022/05/27 04:57:32;;;;;;;2.20;1.70;;;;;;;16.60;65.98;98933.15;105631;1268;61205;-69
2022/05/27 05:00:00;;;;;;;2.40;1.00;;;;;;;16.61;65.87;98927.84;105227;1268;61733;-69
2022/05/27 05:02:27;;;;;;;2.40;1.50;;;;;;;16.63;65.90;98930.75;105312;1268;76348;-69
2022/05/27 05:04:53;;;;;;;4.00;0.90;;;;;;;16.60;65.98;98934.98;105219;1268;61314;-70
2022/05/27 05:07:23;;;;;;;1.70;0.90;;;;;;;16.56;65.82;98929.97;105063;1268;61388;-69
2022/05/27 05:09:49;;;;;;;1.30;0.90;;;;;;;16.54;65.91;98931.44;105249;1268;61272;-70
2022/05/27 05:12:22;;;;;;;1.10;0.90;;;;;;;16.54;65.95;98931.47;105233;1268;61890;-70
2022/05/27 05:14:50;;;;;;;1.50;0.90;;;;;;;16.59;66.14;98926.45;105214;1268;75557;-69
2022/05/27 05:17:18;;;;;;;3.10;1.10;;;;;;;16.65;65.93;98926.95;105261;1268;69535;-67
2022/05/27 05:19:45;;;;;;;2.80;1.10;;;;;;;16.78;65.50;98919.89;105242;1268;74688;-69
2022/05/27 05:22:13;;;;;;;2.40;1.10;;;;;;;16.94;65.57;98915.39;105270;1268;61272;-70
2022/05/27 05:24:39;;;;;;;2.60;1.10;;;;;;;17.10;65.45;98908.80;105207;1268;61439;-70
2022/05/27 05:27:06;;;;;;;1.50;0.80;;;;;;;17.25;64.93;98908.41;105043;1268;75257;-69
2022/05/27 05:29:33;;;;;;;3.10;1.40;;;;;;;17.36;64.54;98907.00;105228;1268;69203;-68
2022/05/27 05:31:59;;;;;;;2.10;0.80;;;;;;;17.45;64.46;98903.96;105232;1268;71447;-69
2022/05/27 05:34:26;;;;;;;3.70;1.10;;;;;;;17.55;64.21;98901.58;105214;1268;61384;-69
2022/05/27 05:36:54;;;;;;;2.60;1.10;;;;;;;17.64;63.88;98905.55;105206;1268;61312;-68
2022/05/27 05:39:20;;;;;;;5.20;1.20;;;;;;;17.75;63.65;98906.45;105216;1268;75382;-69
2022/05/27 05:41:58;;;;;;;3.60;1.10;;;;;;;17.84;63.44;98904.16;105273;1268;61290;-68
2022/05/27 05:44:30;;;;;;;2.60;1.10;;;;;;;17.90;63.15;98897.81;105292;1268;74230;-68
2022/05/27 05:46:57;;;;;;;2.80;0.90;;;;;;;17.94;62.75;98903.16;105264;1268;61351;-70
2022/05/27 05:49:24;;;;;;;3.30;0.80;;;;;;;17.96;62.92;98901.30;105239;1268;61154;-70
2022/05/27 05:51:53;;;;;;;1.70;0.90;;;;;;;18.05;62.78;98897.28;105335;1268;75147;-70
2022/05/27 05:54:20;;;;;;;4.60;1.00;;;;;;;18.10;62.32;98897.48;105259;1270;70248;-69
2022/05/27 05:56:50;;;;;;;2.00;0.60;;;;;;;18.15;62.12;98896.77;105044;1268;73394;-69
2022/05/27 05:59:18;;;;;;;3.40;1.10;;;;;;;18.33;61.93;98893.88;105237;1268;61344;-69
2022/05/27 06:01:46;;;;;;;2.70;0.80;;;;;;;18.50;61.55;98886.27;104967;1269;61198;-69
2022/05/27 06:04:13;;;;;;;4.50;1.10;;;;;;;18.70;60.81;98877.21;105226;1268;75101;-70
2022/05/27 06:06:40;;;;;;;1.10;0.90;;;;;;;18.85;60.55;98877.48;105256;1268;61386;-70
2022/05/27 06:09:08;;;;;;;2.20;1.00;;;;;;;18.97;60.67;98873.38;105230;1268;73428;-68
2022/05/27 06:11:38;;;;;;;4.20;1.00;;;;;;;19.07;59.93;98868.92;105243;1268;61349;-69
2022/05/27 06:14:05;;;;;;;3.50;0.90;;;;;;;19.15;59.69;98863.16;105224;1268;61287;-68
2022/05/27 06:16:33;;;;;;;4.00;0.90;;;;;;;19.33;59.57;98861.85;105201;1268;76452;-69
2022/05/27 06:19:00;;;;;;;1.70;0.90;;;;;;;19.56;58.18;98859.29;105210;1268;70195;-69
2022/05/27 06:21:27;;;;;;;1.70;0.80;;;;;;;19.83;57.87;98857.95;105210;1268;73957;-68
2022/05/27 06:23:54;;;;;;;6.00;1.10;;;;;;;20.14;57.34;98861.85;105200;1268;61466;-69
2022/05/27 06:26:21;;;;;;;4.20;1.10;;;;;;;20.31;57.51;98863.80;105226;1268;61288;-68
2022/05/27 06:34:26;;;;;;;3.10;0.90;;;;;;;20.60;55.98;98862.63;105226;1268;73517;-68
2022/05/27 06:36:59;;;;;;;1.70;1.10;;;;;;;20.50;56.21;98860.04;104983;1274;61320;-69
2022/05/27 06:39:28;;;;;;;3.30;0.90;;;;;;;20.44;56.79;98853.15;105246;1269;61251;-68
2022/05/27 06:41:55;;;;;;;2.40;0.80;;;;;;;20.45;56.07;98847.46;105248;1268;74315;-69
2022/05/27 06:44:22;;;;;;;2.80;1.10;;;;;;;20.38;56.09;98844.45;105238;1268;70140;-70
2022/05/27 06:46:51;;;;;;;3.20;1.10;;;;;;;20.33;56.09;98840.23;105275;1268;73819;-68
2022/05/27 06:49:19;;;;;;;4.30;1.10;;;;;;;20.30;56.36;98840.80;105094;1268;61251;-70
2022/05/27 06:51:47;;;;;;;2.70;1.30;;;;;;;20.27;55.98;98835.02;105235;1269;61374;-69
2022/05/27 06:54:15;;;;;;;3.70;1.10;;;;;;;20.26;56.07;98835.28;104997;1274;75009;-70
2022/05/27 06:56:44;;;;;;;2.10;1.10;;;;;;;20.34;56.17;98834.71;105302;1268;69259;-70
2022/05/27 06:59:12;;;;;;;5.00;1.00;;;;;;;20.47;56.24;98833.36;105201;1271;74898;-71
2022/05/27 07:01:38;;;;;;;6.30;1.10;;;;;;;20.63;55.87;98833.79;105334;1268;61381;-69
2022/05/27 07:04:05;;;;;;;3.40;1.00;;;;;;;20.85;55.78;98831.95;104990;1271;61323;-69
2022/05/27 07:06:37;;;;;;;5.50;1.00;;;;;;;21.14;54.86;98823.48;105295;1268;76640;-69
2022/05/27 07:09:08;;;;;;;3.10;1.30;;;;;;;21.41;54.57;98824.53;105336;1268;69234;-71
2022/05/27 07:11:36;;;;;;;2.20;0.80;;;;;;;21.73;54.58;98815.08;105326;1268;74576;-69
2022/05/27 07:14:03;;;;;;;1.60;1.00;;;;;;;22.46;54.07;98820.45;105144;1271;61355;-69
2022/05/27 07:16:29;;;;;;;2.10;1.30;;;;;;;23.22;52.13;98813.64;105317;1268;61288;-69
2022/05/27 07:18:56;;;;;;;3.50;1.30;;;;;;;23.81;50.84;98808.19;105309;1268;61590;-70
2022/05/27 07:21:23;;;;;;;1.20;0.80;;;;;;;24.01;50.30;98805.90;105246;1268;69206;-70
2022/05/27 07:23:53;;;;;;;1.00;0.70;;;;;;;23.98;49.64;98804.41;105313;1268;74373;-69
2022/05/27 07:26:21;;;;;;;1.90;0.90;;;;;;;23.83;48.99;98795.65;105266;1268;61496;-69
2022/05/27 07:28:48;;;;;;;2.80;0.90;;;;;;;23.76;49.07;98794.09;105333;1268;61288;-69
2022/05/27 07:31:17;;;;;;;4.40;1.00;;;;;;;23.86;48.86;98789.75;105081;1268;73893;-69
2022/05/27 07:33:44;;;;;;;5.50;0.90;;;;;;;23.93;48.14;98784.00;105229;1271;70002;-69
2022/05/27 07:36:12;;;;;;;4.90;1.20;;;;;;;23.96;47.96;98784.33;105266;1268;74261;-69
2022/05/27 07:38:39;;;;;;;4.00;1.00;;;;;;;24.21;47.38;98775.89;105286;1268;61262;-68
2022/05/27 07:41:06;;;;;;;5.30;1.10;;;;;;;24.60;47.41;98772.59;105294;1268;61185;-69
2022/05/27 07:43:33;;;;;;;1.70;0.70;;;;;;;24.95;46.51;98764.98;105397;1268;74023;-69
2022/05/27 07:46:00;;;;;;;2.20;0.90;;;;;;;24.94;45.17;98760.75;105308;1268;70141;-69
2022/05/27 07:48:27;;;;;;;6.10;1.40;;;;;;;24.98;44.73;98761.64;105293;1268;73156;-68
2022/05/27 07:50:53;;;;;;;2.90;0.80;;;;;;;25.11;44.81;98756.13;105281;1268;61295;-69
2022/05/27 07:53:20;;;;;;;2.80;0.90;;;;;;;25.19;45.61;98757.52;105262;1268;61341;-68
2022/05/27 07:55:46;;;;;;;3.60;0.80;;;;;;;25.21;45.49;98743.59;105281;1268;61211;-68
2022/05/27 07:58:13;;;;;;;5.30;1.00;;;;;;;25.18;44.47;98731.82;105320;1268;61247;-69
2022/05/27 08:00:39;;;;;;;3.70;1.10;;;;;;;24.97;43.77;98729.77;105265;1268;61260;-69
2022/05/27 08:03:06;;;;;;;3.60;1.20;;;;;;;24.83;44.03;98726.91;105336;1268;61301;-69
2022/05/27 08:05:35;;;;;;;3.40;1.00;;;;;;;24.74;44.01;98724.44;105317;1268;61631;-71
2022/05/27 08:08:02;;;;;;;1.60;1.20;;;;;;;24.73;44.80;98730.42;105293;1268;76489;-70
2022/05/27 08:10:32;;;;;;;3.10;1.30;;;;;;;24.88;44.72;98726.23;105319;1268;69313;-70
2022/05/27 08:13:00;;;;;;;1.80;0.90;;;;;;;24.97;44.73;98720.33;105342;1268;73571;-70
2022/05/27 08:15:27;;;;;;;3.20;1.10;;;;;;;25.09;44.66;98715.17;104968;1271;61712;-70
2022/05/27 08:17:55;;;;;;;3.60;1.30;;;;;;;25.17;44.11;98714.74;104994;1269;61509;-69
2022/05/27 08:20:24;;;;;;;5.10;1.20;;;;;;;25.23;43.96;98714.59;105209;1271;75303;-68
2022/05/27 08:22:53;;;;;;;2.90;0.90;;;;;;;25.14;42.96;98714.04;105305;1268;69237;-68
2022/05/27 08:25:21;;;;;;;1.90;0.90;;;;;;;25.05;43.29;98715.80;105322;1268;73743;-70
2022/05/27 08:27:49;;;;;;;3.30;1.50;;;;;;;25.10;43.10;98715.02;105217;1271;61330;-68
2022/05/27 08:30:19;;;;;;;2.80;1.10;;;;;;;25.15;43.49;98705.45;105310;1268;61497;-79
2022/05/27 08:32:49;;;;;;;4.10;1.40;;;;;;;25.25;43.53;98703.48;105050;1268;75175;-69
2022/05/27 08:38:07;;;;;;;2.50;0.80;;;;;;;25.26;42.12;98699.05;105043;1268;73153;-69
2022/05/27 08:40:46;;;;;;;3.50;1.40;;;;;;;25.04;42.32;98695.43;105346;1268;61412;-70
2022/05/27 08:43:34;;;;;;;5.30;1.20;;;;;;;25.01;42.52;98697.31;105300;1267;62049;-70
2022/05/27 08:46:13;;;;;;;3.60;0.90;;;;;;;25.20;42.59;98696.95;105036;1269;74941;-70
2022/05/27 08:48:42;;;;;;;3.20;1.00;;;;;;;25.33;42.15;98695.92;105342;1268;69226;-70
2022/05/27 08:51:12;;;;;;;;;;;;;;;25.40;42.41;98697.07;105316;1268;74343;-69
2022/05/27 08:53:45;;;;;;;6.60;1.20;;;;;;;25.47;42.36;98691.94;105336;1268;61320;-69
2022/05/27 08:59:27;;;;;;;3.60;1.70;;;;;;;25.32;41.44;98692.30;105337;1268;74608;-71
2022/05/27 09:02:00;;;;;;;1.70;0.70;;;;;;;25.18;41.78;98692.68;105295;1268;69117;-70
2022/05/27 09:04:35;;;;;;;2.70;0.90;;;;;;;25.19;41.71;98695.41;105268;1268;73391;-70
2022/05/27 09:07:09;;;;;;;2.80;0.90;;;;;;;25.24;42.11;98694.67;105321;1268;61734;-69
2022/05/27 09:09:36;;;;;;;1.80;0.90;;;;;;;25.10;41.89;98687.84;105333;1267;61255;-70
2022/05/27 09:12:22;;;;;;;3.80;1.20;;;;;;;24.91;42.89;98682.51;105337;1268;76060;-69
2022/05/27 09:15:17;;;;;;;2.90;1.10;;;;;;;24.63;43.07;98677.59;105370;1268;69377;-67
2022/05/27 09:17:50;;;;;;;3.30;1.30;;;;;;;24.57;43.13;98663.46;105448;1268;73661;-70
2022/05/27 09:20:36;;;;;;;4.30;1.30;;;;;;;24.63;42.86;98671.33;105390;1268;61396;-72
2022/05/27 09:23:10;;;;;;;4.10;1.60;;;;;;;24.62;43.30;98666.67;105363;1268;61878;-71
2022/05/27 09:25:59;;;;;;;3.50;1.00;;;;;;;24.40;43.01;98668.41;105318;1268;75076;-69
2022/05/27 09:28:39;;;;;;;3.70;1.30;;;;;;;24.10;43.61;98661.81;105377;1268;70371;-70
2022/05/27 09:31:10;;;;;;;4.40;1.10;;;;;;;23.98;43.47;98661.77;105340;1268;74460;-70
2022/05/27 09:33:37;;;;;;;3.60;1.10;;;;;;;23.99;43.79;98645.90;105331;1268;61410;-70
2022/05/27 09:36:17;;;;;;;2.00;1.10;;;;;;;24.08;43.51;98637.85;105331;1268;61603;-70
2022/05/27 09:39:00;;;;;;;3.60;1.00;;;;;;;24.24;43.66;98638.25;105353;1268;75212;-70
2022/05/27 09:41:47;;;;;;;5.10;1.40;;;;;;;24.61;43.75;98631.42;105297;1268;70410;-70
2022/05/27 09:44:31;;;;;;;3.60;1.60;;;;;;;25.07;42.78;98624.19;105331;1267;73357;-70
2022/05/27 09:46:59;;;;;;;4.10;1.00;;;;;;;25.54;42.86;98631.63;105046;1268;61358;-70
2022/05/27 09:49:25;;;;;;;3.00;1.20;;;;;;;25.92;42.14;98632.47;105357;1268;61722;-70
2022/05/27 09:51:52;;;;;;;4.40;1.20;;;;;;;25.87;40.61;98634.89;105346;1268;61255;-70
2022/05/27 09:54:31;;;;;;;2.60;0.90;;;;;;;25.66;41.37;98630.74;105331;1268;61268;-69
2022/05/27 09:57:13;;;;;;;2.10;1.00;;;;;;;25.67;41.89;98628.19;105333;1268;73040;-70
2022/05/27 09:59:49;;;;;;;2.40;1.00;;;;;;;25.57;41.32;98624.83;105336;1268;61342;-70
2022/05/27 10:02:29;;;;;;;4.10;1.50;;;;;;;25.31;41.39;98626.09;105443;1268;61197;-70
2022/05/27 10:05:13;;;;;;;6.10;1.60;;;;;;;25.17;41.65;98626.64;105317;1268;74689;-70
2022/05/27 10:07:43;;;;;;;6.10;1.70;;;;;;;24.99;41.58;98623.02;105348;1268;70307;-69
2022/05/27 10:10:31;;;;;;;2.70;1.10;;;;;;;24.68;41.54;98616.27;105484;1268;73353;-71
2022/05/27 10:13:14;;;;;;;6.20;1.00;;;;;;;24.46;42.08;98609.77;105309;1268;61297;-69
2022/05/27 10:15:40;;;;;;;2.90;2.10;;;;;;;24.44;42.25;98615.41;105317;1268;62420;-68
2022/05/27 10:18:24;;;;;;;6.00;1.10;;;;;;;24.45;41.80;98610.70;105357;1268;76359;-76
2022/05/27 10:21:04;;;;;;;5.20;1.10;;;;;;;24.38;41.18;98609.46;105241;1268;70403;-78
2022/05/27 10:23:35;;;;;;;5.20;1.00;;;;;;;24.41;41.57;98610.80;105370;1268;71289;-73
2022/05/27 10:26:22;;;;;;;1.00;0.70;;;;;;;24.55;41.46;98605.40;105173;1266;61284;-74
2022/05/27 10:28:59;;;;;;;4.00;1.30;;;;;;;24.37;41.58;98602.80;105359;1268;61199;-72
2022/05/27 10:31:25;;;;;;;1.70;0.90;;;;;;;24.44;41.97;98593.59;105456;1268;74788;-74
2022/05/27 10:33:53;;;;;;;4.30;0.90;;;;;;;24.54;41.67;98594.80;105370;1268;70302;-73
2022/05/27 10:36:32;;;;;;;3.70;1.30;;;;;;;24.50;41.62;98588.27;105347;1268;72939;-75
2022/05/27 10:38:58;;;;;;;3.90;1.10;;;;;;;24.62;40.98;98586.52;105004;1268;61278;-73
2022/05/27 10:41:50;;;;;;;6.50;1.20;;;;;;;24.75;41.25;98578.91;105366;1268;61151;-73
2022/05/27 10:44:28;;;;;;;5.20;1.00;;;;;;;24.95;41.14;98580.06;105275;1268;76352;-73
2022/05/27 10:46:57;;;;;;;3.80;0.70;;;;;;;24.96;40.80;98577.34;105345;1268;70031;-73
2022/05/27 10:49:50;;;;;;;4.60;0.80;;;;;;;24.85;39.86;98568.33;105387;1268;71585;-75
2022/05/27 10:52:56;;;;;;;4.50;0.80;;;;;;;24.83;40.71;98571.21;105340;1268;61331;-74
2022/05/27 10:55:44;;;;;;;4.50;0.90;;;;;;;24.99;40.11;98566.32;105369;1268;62345;-76
2022/05/27 11:02:05;;;;;;;3.30;1.00;;;;;;;25.15;40.16;98559.57;105289;1268;69492;-80
2022/05/27 11:04:59;;;;;;;4.40;1.20;;;;;;;25.18;40.59;98550.90;104693;1277;73332;-79
2022/05/27 11:07:31;;;;;;;5.00;1.00;;;;;;;25.31;40.85;98550.38;104693;1276;61461;-73
2022/05/27 11:10:23;;;;;;;2.90;0.70;;;;;;;25.31;41.37;98550.21;104584;1278;61427;-73
2022/05/27 11:16:15;;;;;;;2.50;1.20;;;;;;;25.09;41.73;98542.30;104732;1276;66668;-74
2022/05/27 11:18:58;;;;;;;1.40;1.00;;;;;;;25.04;41.22;98538.98;104531;1279;73392;-74
2022/05/27 11:22:03;;;;;;;2.70;1.50;;;;;;;24.91;41.50;98525.57;104436;1279;61336;-74
2022/05/27 11:24:42;;;;;;;4.60;1.20;;;;;;;24.96;41.76;98523.44;103841;1286;61460;-74
2022/05/27 11:27:33;;;;;;;6.10;1.50;;;;;;;25.10;41.99;98529.02;103853;1287;74351;-75
2022/05/27 11:30:46;;;;;;;4.10;1.50;;;;;;;25.26;42.06;98528.34;103778;1287;68408;-74
2022/05/27 11:33:38;;;;;;;10.00;1.60;;;;;;;25.44;41.69;98524.61;102794;1294;74478;-73
2022/05/27 11:36:27;;;;;;;3.50;2.00;;;;;;;25.50;41.83;98526.42;102837;1294;61409;-74
2022/05/27 11:39:12;;;;;;;4.00;1.50;;;;;;;25.77;41.94;98522.23;103061;1293;62711;-74
2022/05/27 11:41:50;;;;;;;5.70;1.70;;;;;;;25.96;41.52;98524.55;103271;1286;76410;-76
2022/05/27 11:44:36;;;;;;;4.20;1.40;;;;;;;25.87;41.52;98523.77;103954;1284;69259;-74
2022/05/27 11:47:17;;;;;;;3.30;1.90;;;;;;;25.53;41.85;98518.95;103983;1284;74847;-77
2022/05/27 11:49:53;;;;;;;4.80;1.60;;;;;;;25.15;42.40;98520.00;103956;1285;61359;-74
2022/05/27 11:52:32;;;;;;;2.90;1.80;;;;;;;24.80;42.87;98518.54;103967;1284;61834;-74
2022/05/27 11:54:58;;;;;;;3.50;1.60;;;;;;;24.45;43.36;98522.13;103982;1284;76341;-73
2022/05/27 11:58:10;;;;;;;7.80;1.80;;;;;;;24.27;44.05;98524.93;103938;1284;61847;-73
2022/05/27 12:00:41;;;;;;;5.70;1.80;;;;;;;24.15;44.56;98519.02;103203;1294;73665;-74
2022/05/27 12:03:26;;;;;;;3.90;1.80;;;;;;;24.06;44.37;98515.19;103828;1285;61411;-75
2022/05/27 12:05:56;;;;;;;1.90;1.20;;;;;;;23.97;45.06;98515.90;104421;1279;61136;-75
2022/05/27 12:08:41;;;;;;;4.60;1.50;;;;;;;23.90;45.37;98512.97;104613;1279;75864;-74
2022/05/27 12:11:16;;;;;;;5.00;1.50;;;;;;;23.66;45.11;98513.67;104496;1279;70662;-73
2022/05/27 12:14:13;;;;;;;3.40;1.30;;;;;;;23.52;45.38;98511.88;104459;1279;73319;-74
2022/05/27 12:16:44;;;;;;;3.60;1.20;;;;;;;23.46;45.83;98508.83;103973;1284;61350;-74
2022/05/27 12:19:25;;;;;;;6.30;1.40;;;;;;;23.52;46.23;98511.25;104118;1284;62160;-74
2022/05/27 12:22:10;;;;;;;5.30;1.50;;;;;;;23.62;46.41;98507.85;103987;1284;73696;-73